Time;durP1;ratioP1;P1;durP2;ratioP2;P2;SDS_P1;SDS_P2;PMS_P1;PMS_P2;Temp;Humidity;BMP_temperature;BMP_pressure;BME280_temperature;BME280_humidity;BME280_pressure;Samples;Min_cycle;Max_cycle;Signal;HPM_P1;HPM_P2
2023/04/08 00:51:02;;;;;;;10.30;8.00;;;;;;;6.47;100.00;100441.80;180880;1264;44020;-90
2023/04/08 00:55:08;;;;;;;13.50;10.50;;;;;;;6.50;100.00;100442.32;180976;1264;43835;-91
2023/04/08 00:59:35;;;;;;;12.20;8.50;;;;;;;6.54;100.00;100441.52;180877;1265;58514;-90
2023/04/08 01:22:36;;;;;;;21.10;12.60;;;;;;;7.15;100.00;100461.82;154605;1262;57980;-89
2023/04/08 01:26:46;;;;;;;11.10;9.20;;;;;;;7.25;100.00;100460.48;180968;1263;44248;-90
2023/04/08 01:35:21;;;;;;;24.50;11.90;;;;;;;7.42;100.00;100465.56;180245;1265;43839;-90
2023/04/08 01:39:29;;;;;;;19.10;12.30;;;;;;;7.48;100.00;100461.48;180774;1265;43893;-90
2023/04/08 01:43:34;;;;;;;;;;;;;;;7.52;100.00;100462.48;180745;1265;57148;-90
2023/04/08 01:47:49;;;;;;;15.80;11.60;;;;;;;7.55;100.00;100469.85;180811;1265;43796;-90
2023/04/08 01:51:57;;;;;;;17.90;10.20;;;;;;;7.55;100.00;100472.98;180900;1265;47376;-90
2023/04/08 02:15:04;;;;;;;25.00;14.40;;;;;;;7.17;100.00;100488.37;155996;1262;45262;-90
2023/04/08 02:41:49;;;;;;;25.60;15.70;;;;;;;6.87;100.00;100519.52;149619;1260;44466;-90
2023/04/08 02:50:36;;;;;;;23.10;16.60;;;;;;;6.77;100.00;100519.24;148045;1260;58001;-89
2023/04/08 02:54:43;;;;;;;23.40;16.00;;;;;;;6.82;100.00;100522.11;181004;1263;50440;-90
2023/04/08 03:03:03;;;;;;;23.50;16.80;;;;;;;6.91;100.00;100533.23;173314;1262;44447;-90
2023/04/08 03:07:09;;;;;;;26.70;16.50;;;;;;;6.95;100.00;100537.70;181039;1262;44107;-90
2023/04/08 03:11:15;;;;;;;29.30;17.10;;;;;;;6.95;100.00;100543.86;181068;1265;59338;-89
2023/04/08 03:15:19;;;;;;;29.10;17.70;;;;;;;6.95;100.00;100548.45;180988;1262;43837;-90
2023/04/08 04:20:45;;;;;;;;;;;;;;;;;;;;;
2023/04/08 05:07:29;;;;;;;27.70;18.00;;;;;;;5.94;100.00;100659.55;142726;1292;59931;-89
2023/04/08 05:11:36;;;;;;;25.90;17.10;;;;;;;5.90;100.00;100669.42;181061;1263;43800;-91
2023/04/08 05:20:14;;;;;;;23.40;17.30;;;;;;;5.91;100.00;100676.45;154836;1261;44725;-89
2023/04/08 05:51:04;;;;;;;25.30;19.20;;;;;;;6.00;100.00;100714.83;175634;1263;58199;-90
2023/04/08 05:55:07;;;;;;;31.40;18.70;;;;;;;6.01;100.00;100722.19;180794;1264;44087;-89
2023/04/08 05:59:12;;;;;;;27.50;18.10;;;;;;;5.96;100.00;100728.08;180766;1264;44194;-88
2023/04/08 06:28:51;;;;;;;25.80;17.70;;;;;;;6.07;100.00;100761.67;181052;1262;44058;-90
2023/04/08 06:33:00;;;;;;;35.60;23.40;;;;;;;6.09;100.00;100767.52;181048;1263;44226;-90
2023/04/08 06:37:08;;;;;;;31.70;23.30;;;;;;;6.12;100.00;100771.42;181069;1262;58159;-90
2023/04/08 06:41:12;;;;;;;28.20;18.70;;;;;;;6.15;100.00;100775.83;181011;1263;43852;-90
2023/04/08 06:45:16;;;;;;;25.50;20.00;;;;;;;6.21;100.00;100780.13;180925;1262;44146;-90
2023/04/08 06:54:00;;;;;;;31.40;20.70;;;;;;;6.15;100.00;100788.34;180771;1268;44247;-90
2023/04/08 06:58:06;;;;;;;27.50;20.40;;;;;;;6.16;99.58;100797.13;180689;1265;58700;-90
2023/04/08 07:02:10;;;;;;;27.20;18.30;;;;;;;6.12;98.85;100799.41;180749;1265;43714;-90
2023/04/08 07:06:15;;;;;;;32.10;23.10;;;;;;;6.09;98.86;100804.50;180789;1265;44128;-90
2023/04/08 07:10:19;;;;;;;31.40;20.10;;;;;;;6.17;98.94;100807.78;180701;1265;43840;-91
2023/04/08 07:14:22;;;;;;;22.60;18.50;;;;;;;6.22;98.88;100812.63;180655;1265;44207;-90
2023/04/08 07:22:59;;;;;;;26.70;18.70;;;;;;;6.39;97.24;100826.28;156415;1265;44530;-90
2023/04/08 07:27:03;;;;;;;25.60;19.10;;;;;;;6.45;95.59;100828.25;180724;1264;43768;-88
2023/04/08 07:31:16;;;;;;;22.40;17.10;;;;;;;6.51;95.01;100832.73;180599;1264;44254;-87
2023/04/08 07:35:23;;;;;;;23.20;18.00;;;;;;;6.52;93.09;100836.67;180690;1264;43970;-88
2023/04/08 07:39:26;;;;;;;32.80;20.10;;;;;;;6.68;94.65;100839.84;180793;1263;57158;-88
2023/04/08 07:43:38;;;;;;;16.50;12.00;;;;;;;6.77;91.95;100844.48;180684;1264;44275;-89
2023/04/08 07:47:43;;;;;;;21.00;16.30;;;;;;;6.85;90.33;100848.08;180561;1265;44148;-89
2023/04/08 08:10:14;;;;;;;19.40;14.40;;;;;;;7.29;86.98;100867.94;180938;1263;44348;-88
2023/04/08 08:14:18;;;;;;;25.80;16.90;;;;;;;7.45;86.11;100871.96;180858;1262;44351;-89
2023/04/08 08:18:21;;;;;;;18.20;15.00;;;;;;;7.48;85.47;100870.70;180967;1262;43823;-89
2023/04/08 08:22:24;;;;;;;20.70;15.50;;;;;;;7.54;84.01;100874.42;180634;1262;58783;-88
2023/04/08 08:26:28;;;;;;;24.00;15.90;;;;;;;7.62;85.74;100874.46;180823;1262;43779;-85
2023/04/08 08:30:31;;;;;;;21.70;15.70;;;;;;;7.79;83.96;100880.02;180749;1262;44196;-87
2023/04/08 08:34:36;;;;;;;22.20;15.70;;;;;;;7.82;84.60;100885.26;180784;1265;44480;-87
2023/04/08 08:38:39;;;;;;;23.80;17.80;;;;;;;7.78;84.11;100884.66;180630;1262;43800;-87
2023/04/08 08:42:52;;;;;;;24.30;17.00;;;;;;;7.87;83.92;100888.52;180803;1262;58313;-87
2023/04/08 08:46:55;;;;;;;24.10;18.00;;;;;;;7.99;83.73;100891.52;180827;1262;44079;-89
2023/04/08 08:50:59;;;;;;;24.90;18.40;;;;;;;8.00;80.80;100895.35;180790;1262;44396;-87
2023/04/08 08:55:07;;;;;;;23.70;15.60;;;;;;;7.97;79.39;100899.22;180991;1261;44289;-91
2023/04/08 09:19:07;;;;;;;25.40;17.30;;;;;;;7.77;81.68;100940.84;181041;1260;44259;-90
2023/04/08 09:23:10;;;;;;;26.40;18.20;;;;;;;7.73;81.48;100941.96;180833;1265;43945;-87
2023/04/08 09:27:48;;;;;;;24.10;17.40;;;;;;;7.73;82.10;100951.31;180485;1265;57987;-90
2023/04/08 09:31:55;;;;;;;24.00;16.80;;;;;;;7.83;81.83;100953.75;180606;1265;44105;-87
2023/04/08 09:35:58;;;;;;;27.30;15.70;;;;;;;7.93;79.78;100952.64;180561;1265;44217;-88
2023/04/08 09:40:01;;;;;;;16.00;13.70;;;;;;;8.03;80.00;100961.21;180639;1264;44297;-87
2023/04/08 09:44:08;;;;;;;20.30;14.50;;;;;;;8.04;78.92;100965.58;180579;1265;43863;-88
2023/04/08 09:48:16;;;;;;;18.80;13.20;;;;;;;8.06;78.70;100969.50;180606;1265;58338;-89
2023/04/08 09:52:33;;;;;;;16.30;13.10;;;;;;;8.14;78.40;100975.25;180675;1265;44280;-89
2023/04/08 09:56:50;;;;;;;16.60;11.70;;;;;;;8.26;76.50;100972.93;180704;1264;43729;-89
2023/04/08 10:00:54;;;;;;;17.50;12.40;;;;;;;8.32;75.73;100973.23;180675;1265;47196;-87
2023/04/08 10:05:02;;;;;;;14.20;11.10;;;;;;;8.42;75.70;100976.70;180526;1265;43857;-90
2023/04/08 10:09:13;;;;;;;12.80;10.40;;;;;;;8.42;76.22;100977.56;180869;1265;58211;-90
2023/04/08 10:18:06;;;;;;;20.70;13.50;;;;;;;8.30;76.19;100982.06;180725;1263;44073;-89
2023/04/08 10:22:34;;;;;;;23.50;16.60;;;;;;;8.36;77.12;100987.36;180672;1265;44298;-89
2023/04/08 10:26:53;;;;;;;22.10;16.70;;;;;;;8.33;75.83;100992.81;180515;1265;44042;-89
2023/04/08 10:31:01;;;;;;;19.80;14.40;;;;;;;8.37;75.61;100994.67;180300;1265;58257;-89
2023/04/08 10:35:06;;;;;;;14.80;12.40;;;;;;;8.39;76.30;100998.45;180501;1265;44413;-88
2023/04/08 10:39:13;;;;;;;40.20;22.70;;;;;;;8.40;78.82;101004.58;180361;1265;44208;-88
2023/04/08 10:43:19;;;;;;;22.80;18.60;;;;;;;8.51;77.72;101006.73;180232;1265;44081;-89
2023/04/08 10:47:32;;;;;;;32.40;19.20;;;;;;;8.67;76.86;101005.43;180351;1265;43801;-89
2023/04/08 10:51:40;;;;;;;46.60;27.70;;;;;;;8.79;77.07;101005.44;180597;1265;60916;-89
2023/04/08 10:55:48;;;;;;;24.30;16.50;;;;;;;8.88;77.67;101003.98;180470;1265;43871;-90
2023/04/08 10:59:51;;;;;;;18.90;14.40;;;;;;;8.95;76.72;101004.58;180258;1265;44010;-90
2023/04/08 11:03:55;;;;;;;21.90;15.10;;;;;;;9.04;76.39;101006.14;180399;1265;44183;-89
2023/04/08 11:08:04;;;;;;;38.10;25.20;;;;;;;9.11;76.24;101007.11;180297;1265;43984;-89
2023/04/08 11:12:11;;;;;;;24.20;16.00;;;;;;;9.21;75.15;101008.98;180400;1265;60600;-89
2023/04/08 11:16:21;;;;;;;16.60;12.70;;;;;;;9.22;73.60;101010.45;180586;1264;44755;-89
2023/04/08 11:20:27;;;;;;;17.80;13.20;;;;;;;9.33;74.37;101006.95;180558;1264;44096;-88
2023/04/08 11:24:31;;;;;;;17.10;13.00;;;;;;;9.43;74.41;101003.33;180579;1264;43794;-90
2023/04/08 11:28:35;;;;;;;15.30;13.40;;;;;;;9.48;72.89;101005.44;180657;1263;43829;-90
2023/04/08 11:32:41;;;;;;;14.60;11.70;;;;;;;9.49;72.42;101001.13;180442;1265;59470;-90
2023/04/08 11:36:45;;;;;;;19.00;14.40;;;;;;;9.57;72.83;101001.70;180610;1264;44022;-89
2023/04/08 11:40:53;;;;;;;16.60;13.30;;;;;;;9.75;74.62;100999.27;180705;1264;44065;-89
2023/04/08 11:44:56;;;;;;;17.60;13.10;;;;;;;9.97;73.11;100998.70;180715;1264;44228;-89
2023/04/08 11:49:05;;;;;;;19.30;14.40;;;;;;;10.19;73.63;100998.08;180608;1265;44101;-90
2023/04/08 11:53:23;;;;;;;20.80;14.70;;;;;;;10.24;72.46;100997.34;180435;1265;59239;-90
2023/04/08 11:57:39;;;;;;;18.10;16.00;;;;;;;10.52;72.80;100998.48;180455;1265;44303;-89
2023/04/08 12:01:53;;;;;;;21.00;14.60;;;;;;;10.76;70.35;101001.08;180823;1264;44217;-90
2023/04/08 12:10:55;;;;;;;19.30;14.10;;;;;;;10.85;69.78;100999.52;181041;1261;44871;31
2023/04/08 12:15:31;;;;;;;16.20;13.60;;;;;;;11.00;68.99;101001.34;181134;1263;58720;-88
2023/04/08 12:19:45;;;;;;;18.90;14.30;;;;;;;11.09;67.47;101001.23;180985;1263;44224;-88
2023/04/08 12:23:52;;;;;;;20.10;13.20;;;;;;;11.15;68.85;101000.96;180900;1262;44140;-91
2023/04/08 12:27:55;;;;;;;19.50;14.80;;;;;;;11.27;69.64;101001.33;180766;1262;43793;-88
2023/04/08 12:31:59;;;;;;;19.10;15.70;;;;;;;11.36;68.13;101004.73;180577;1262;43900;-87
2023/04/08 12:36:04;;;;;;;16.20;13.20;;;;;;;11.41;68.37;101006.55;180692;1262;60976;-90
2023/04/08 12:40:09;;;;;;;32.00;20.70;;;;;;;11.28;71.92;101006.77;180846;1262;46897;-90
2023/04/08 12:44:13;;;;;;;26.50;19.20;;;;;;;11.05;71.74;101008.45;180823;1262;44532;-91
2023/04/08 12:48:17;;;;;;;28.40;18.00;;;;;;;10.81;72.83;101009.07;180813;1262;44106;-90
2023/04/08 12:52:23;;;;;;;19.40;15.00;;;;;;;10.59;72.30;101009.33;180854;1262;44025;-91
2023/04/08 12:56:29;;;;;;;20.70;16.30;;;;;;;10.53;73.03;101006.75;180954;1262;59443;-90
2023/04/08 13:00:39;;;;;;;21.30;16.90;;;;;;;10.71;70.97;101006.74;180964;1262;44869;-90
2023/04/08 13:04:43;;;;;;;19.40;14.60;;;;;;;10.75;73.00;101008.39;181021;1262;44287;-91
2023/04/08 13:08:47;;;;;;;17.80;14.60;;;;;;;10.60;72.36;101009.80;180917;1262;43916;-90
2023/04/08 13:13:03;;;;;;;23.80;18.40;;;;;;;10.57;70.93;101007.52;180849;1262;43759;-90
2023/04/08 13:17:16;;;;;;;20.20;15.90;;;;;;;10.67;71.73;101009.84;180993;1262;58583;31
2023/04/08 13:21:22;;;;;;;22.10;17.20;;;;;;;10.78;71.87;101010.02;180965;1262;44170;-91
2023/04/08 13:35:01;;;;;;;21.90;16.90;;;;;;;11.23;68.70;101005.54;181073;1262;47593;-88
2023/04/08 13:39:06;;;;;;;22.90;16.20;;;;;;;11.19;70.00;101004.79;180822;1264;58462;-90
2023/04/08 13:43:11;;;;;;;18.10;14.00;;;;;;;11.23;70.26;100996.84;180700;1263;44655;-89
2023/04/08 13:47:15;;;;;;;20.80;16.80;;;;;;;11.42;68.99;100993.83;180906;1263;44680;-89
2023/04/08 13:51:18;;;;;;;19.00;14.70;;;;;;;11.66;67.50;100989.39;180962;1263;43972;-89
2023/04/08 13:55:21;;;;;;;22.10;15.30;;;;;;;11.62;68.63;100991.87;180817;1263;43961;-90
2023/04/08 13:59:25;;;;;;;18.90;14.60;;;;;;;11.60;70.46;100993.27;180567;1263;59424;-89
2023/04/08 14:03:28;;;;;;;26.80;15.50;;;;;;;11.68;71.46;100990.55;180691;1263;44134;-89
2023/04/08 14:07:32;;;;;;;20.50;17.40;;;;;;;11.76;70.74;100989.73;180731;1264;44251;-91
2023/04/08 14:11:35;;;;;;;20.90;16.30;;;;;;;11.78;70.32;100986.91;180667;1263;44280;-90
2023/04/08 14:15:41;;;;;;;19.60;14.70;;;;;;;11.74;70.97;100986.69;180841;1263;44011;-90
2023/04/08 14:19:44;;;;;;;18.80;15.20;;;;;;;11.85;71.66;100993.31;180727;1263;58490;-90
2023/04/08 14:23:48;;;;;;;21.30;19.10;;;;;;;12.07;71.21;100987.04;180700;1262;44027;-91
2023/04/08 14:27:51;;;;;;;23.60;17.30;;;;;;;12.22;70.07;100988.24;180809;1262;43912;-90
2023/04/08 14:32:01;;;;;;;23.20;17.30;;;;;;;12.27;69.90;100983.17;180761;1262;43937;-90
2023/04/08 14:36:04;;;;;;;22.90;16.10;;;;;;;12.31;70.40;100991.08;180765;1264;44770;-91
2023/04/08 14:40:09;;;;;;;19.80;16.90;;;;;;;12.48;70.40;100995.48;180725;1262;60600;-91
2023/04/08 14:44:14;;;;;;;22.90;16.50;;;;;;;12.56;68.87;100998.26;180791;1262;43851;-88
2023/04/08 14:48:18;;;;;;;26.60;16.90;;;;;;;12.62;69.08;101000.05;180698;1263;44249;-90
2023/04/08 14:52:22;;;;;;;28.00;17.00;;;;;;;12.65;68.63;101002.67;180623;1262;43741;-90
2023/04/08 14:56:26;;;;;;;24.40;16.70;;;;;;;12.59;68.97;101002.11;180758;1263;44117;-92
2023/04/08 15:00:30;;;;;;;20.20;15.80;;;;;;;12.51;70.02;100998.81;180941;1264;86857;-69
2023/04/08 15:14:20;;;;;;;20.20;17.00;;;;;;;11.92;70.51;101007.20;176871;1262;45268;31
2023/04/08 16:00:39;;;;;;;21.30;16.60;;;;;;;10.85;73.61;100987.11;178507;1257;45778;31
2023/04/08 16:06:04;;;;;;;;;;;;;;;;;;;;;
2023/04/08 16:29:43;;;;;;;23.60;18.10;;;;;;;10.67;77.97;101007.55;172700;1260;45345;-88
2023/04/08 16:33:52;;;;;;;25.20;19.30;;;;;;;10.58;76.47;101009.42;180680;1262;44272;-91
2023/04/08 16:52:25;;;;;;;22.70;16.60;;;;;;;10.07;79.47;101020.49;175456;1258;44217;-91
2023/04/08 16:56:44;;;;;;;29.20;19.80;;;;;;;10.00;80.85;101018.84;181043;1262;43920;-91
2023/04/08 17:05:33;;;;;;;35.40;26.10;;;;;;;9.78;81.73;101022.98;180948;1267;43834;-90
2023/04/08 17:09:58;;;;;;;29.30;20.50;;;;;;;9.67;82.35;101030.61;180798;1267;44021;-90
2023/04/08 17:14:07;;;;;;;45.00;27.50;;;;;;;9.54;82.36;101032.98;180821;1267;44109;-89
2023/04/08 17:22:46;;;;;;;30.90;17.80;;;;;;;9.21;81.90;101037.95;180896;1264;60177;-90
2023/04/08 17:37:02;;;;;;;32.00;22.50;;;;;;;8.83;81.28;101049.75;181071;1260;44131;-90
2023/04/08 17:46:59;;;;;;;28.10;18.70;;;;;;;8.65;81.28;101056.64;176146;1260;58692;-89
2023/04/08 18:00:58;;;;;;;26.80;19.10;;;;;;;8.22;83.34;101068.25;180845;1265;44174;-90
2023/04/08 18:05:24;;;;;;;30.30;19.50;;;;;;;8.21;84.11;101072.68;180955;1256;45558;-90
2023/04/08 18:09:47;;;;;;;23.40;18.40;;;;;;;8.18;85.26;101077.63;180813;1263;60439;-89
2023/04/08 18:13:50;;;;;;;26.80;17.80;;;;;;;8.07;85.94;101083.06;180604;1265;44272;-89
2023/04/08 18:17:58;;;;;;;34.20;23.80;;;;;;;8.04;86.43;101083.73;180566;1264;43762;-89
2023/04/08 18:22:02;;;;;;;35.80;24.80;;;;;;;8.09;86.28;101085.41;180712;1264;43952;-91
2023/04/08 18:26:06;;;;;;;39.70;22.70;;;;;;;8.11;87.79;101086.15;180747;1264;43835;-90
2023/04/08 18:30:11;;;;;;;23.50;17.30;;;;;;;7.97;91.14;101093.52;180727;1265;59246;-91
2023/04/08 18:34:30;;;;;;;26.70;21.20;;;;;;;7.66;93.44;101099.87;180714;1264;43885;-89
2023/04/08 18:38:35;;;;;;;29.20;21.80;;;;;;;7.41;95.63;101103.36;180816;1267;44539;-89
2023/04/08 18:42:40;;;;;;;35.40;24.80;;;;;;;7.23;96.75;101101.72;180858;1264;44197;-89
2023/04/08 18:46:46;;;;;;;49.10;29.70;;;;;;;7.02;97.72;101110.73;180861;1263;44027;-91
2023/04/08 18:50:50;;;;;;;44.80;26.70;;;;;;;6.94;97.44;101113.98;180887;1264;59853;-91
2023/04/08 18:54:54;;;;;;;35.60;25.40;;;;;;;6.88;96.62;101109.72;180819;1264;44057;-91
2023/04/08 18:58:58;;;;;;;44.80;27.60;;;;;;;6.72;97.71;101114.79;180676;1264;43861;-90
2023/04/08 19:03:02;;;;;;;45.30;27.50;;;;;;;6.56;99.43;101115.80;180856;1265;44070;-90
2023/04/08 19:07:09;;;;;;;42.60;31.40;;;;;;;6.37;100.00;101118.70;180816;1264;44009;-91
2023/04/08 19:11:13;;;;;;;39.70;26.20;;;;;;;6.37;100.00;101120.80;180812;1265;58998;-91
2023/04/08 19:15:17;;;;;;;44.70;31.40;;;;;;;6.37;100.00;101122.59;180864;1264;43877;-90
2023/04/08 19:19:21;;;;;;;43.10;30.60;;;;;;;6.33;100.00;101125.07;180662;1265;44243;-91
2023/04/08 19:23:25;;;;;;;45.20;31.70;;;;;;;6.27;100.00;101126.59;180633;1264;45691;-89
2023/04/08 19:32:08;;;;;;;45.50;31.20;;;;;;;6.21;100.00;101126.56;157235;1264;59260;-88
2023/04/08 19:36:12;;;;;;;39.50;28.70;;;;;;;6.17;100.00;101133.95;180953;1263;44558;-84
2023/04/08 19:40:18;;;;;;;47.90;32.40;;;;;;;6.18;100.00;101132.32;180699;1263;45408;-85
2023/04/08 19:44:23;;;;;;;47.40;34.10;;;;;;;6.26;100.00;101135.60;180782;1263;44201;-84
2023/04/08 19:57:30;;;;;;;49.90;34.60;;;;;;;6.24;100.00;101138.36;143468;1287;46685;-89
2023/04/08 20:05:51;;;;;;;52.70;34.50;;;;;;;6.27;100.00;101141.55;178867;1267;453517;-90
2023/04/08 20:09:54;;;;;;;54.90;39.00;;;;;;;6.23;100.00;101144.77;180563;1269;44098;-89
2023/04/08 20:14:00;;;;;;;61.50;39.90;;;;;;;6.32;100.00;101140.46;180552;1265;58169;-90
2023/04/08 20:18:03;;;;;;;55.50;36.90;;;;;;;6.36;100.00;101141.49;180592;1269;44328;-89
2023/04/08 20:22:07;;;;;;;50.40;37.90;;;;;;;6.38;100.00;101137.30;180756;1265;43898;-89
2023/04/08 20:26:13;;;;;;;58.10;37.20;;;;;;;6.39;100.00;101139.20;180600;1265;44086;-90
2023/04/08 20:30:17;;;;;;;58.20;38.60;;;;;;;6.37;100.00;101135.25;180697;1267;44484;-88
2023/04/08 20:34:20;;;;;;;57.90;34.40;;;;;;;6.42;100.00;101137.45;180618;1269;59252;-90
2023/04/08 20:38:24;;;;;;;53.40;33.10;;;;;;;6.42;100.00;101138.34;180729;1267;43844;-89
2023/04/08 20:42:32;;;;;;;54.90;37.70;;;;;;;6.41;100.00;101139.98;180691;1265;43920;-87
2023/04/08 20:46:37;;;;;;;55.30;34.50;;;;;;;6.46;100.00;101140.27;180883;1265;45729;-89
2023/04/08 20:55:09;;;;;;;56.60;39.70;;;;;;;6.27;100.00;101138.22;180618;1267;61156;-87
2023/04/08 20:59:13;;;;;;;64.60;38.90;;;;;;;6.21;100.00;101136.77;180617;1266;44393;-90
2023/04/08 21:03:28;;;;;;;52.30;35.20;;;;;;;6.15;100.00;101138.98;180739;1266;43850;-90
2023/04/08 21:07:32;;;;;;;55.10;38.20;;;;;;;6.11;100.00;101136.38;180752;1266;44437;-90
2023/04/08 21:11:35;;;;;;;59.30;36.60;;;;;;;6.09;100.00;101139.27;180398;1267;43878;-90
2023/04/08 21:15:38;;;;;;;54.70;36.30;;;;;;;6.05;100.00;101138.06;180348;1268;58867;-88
2023/04/08 21:19:41;;;;;;;50.70;33.60;;;;;;;6.06;100.00;101141.38;180420;1267;43987;-87
2023/04/08 21:28:48;;;;;;;51.20;32.50;;;;;;;6.31;100.00;101143.84;165803;1260;44994;-88
2023/04/08 21:32:54;;;;;;;41.10;31.00;;;;;;;6.38;100.00;101140.84;180821;1262;43714;-89
2023/04/08 21:37:01;;;;;;;53.10;33.70;;;;;;;6.37;100.00;101140.02;180751;1264;59523;-87
2023/04/08 21:41:05;;;;;;;44.00;31.40;;;;;;;6.26;100.00;101142.84;180800;1264;44004;-89
2023/04/08 21:45:25;;;;;;;54.20;33.40;;;;;;;6.21;100.00;101141.70;180882;1264;50732;-86
2023/04/08 21:49:37;;;;;;;51.80;34.00;;;;;;;6.13;100.00;101138.20;180840;1260;43825;-87
2023/04/08 21:53:40;;;;;;;47.90;30.40;;;;;;;6.07;100.00;101138.64;180814;1262;44423;-88
2023/04/08 21:57:44;;;;;;;47.30;30.00;;;;;;;5.99;100.00;101146.44;180666;1264;57846;-86
2023/04/08 22:01:48;;;;;;;44.50;34.00;;;;;;;5.99;100.00;101148.58;180858;1262;46563;-88
2023/04/08 22:05:52;;;;;;;53.00;35.20;;;;;;;6.01;100.00;101151.61;180663;1262;44285;-86
2023/04/08 22:09:56;;;;;;;41.30;31.30;;;;;;;5.98;100.00;101148.08;180619;1262;44094;-88
2023/04/08 22:13:59;;;;;;;58.60;34.70;;;;;;;5.91;100.00;101146.44;180683;1262;43922;-88
2023/04/08 22:18:03;;;;;;;42.50;27.90;;;;;;;5.85;100.00;101145.15;180676;1262;60174;-87
2023/04/08 22:22:07;;;;;;;46.10;33.50;;;;;;;5.82;100.00;101143.73;180773;1262;43899;-88
2023/04/08 22:26:10;;;;;;;49.90;34.80;;;;;;;5.85;100.00;101146.02;180698;1261;43833;-89
2023/04/08 22:30:13;;;;;;;42.30;27.80;;;;;;;5.93;100.00;101144.27;180700;1262;44049;-88
2023/04/08 22:34:16;;;;;;;51.70;33.60;;;;;;;5.98;100.00;101137.36;180660;1262;43803;-89
2023/04/08 22:38:20;;;;;;;38.80;26.60;;;;;;;6.01;100.00;101138.80;180708;1262;58311;-87
2023/04/08 22:42:24;;;;;;;48.30;33.30;;;;;;;6.01;100.00;101136.48;180525;1262;43865;-89
2023/04/08 22:46:28;;;;;;;45.80;31.00;;;;;;;5.99;100.00;101134.29;180669;1263;44557;-87
2023/04/08 22:50:33;;;;;;;47.10;32.80;;;;;;;5.99;100.00;101133.06;180685;1262;44196;-88
2023/04/08 22:54:36;;;;;;;49.50;32.80;;;;;;;5.97;100.00;101134.55;180594;1262;43766;-88
2023/04/08 22:58:40;;;;;;;52.70;33.30;;;;;;;5.97;100.00;101132.79;180685;1262;60492;-88
2023/04/08 23:02:44;;;;;;;42.00;30.70;;;;;;;6.02;100.00;101133.65;180663;1262;44009;-88
2023/04/08 23:06:48;;;;;;;47.60;31.30;;;;;;;6.00;100.00;101132.30;180841;1262;43805;-87
2023/04/08 23:10:52;;;;;;;49.90;31.80;;;;;;;5.97;100.00;101138.96;180605;1262;43871;-87
2023/04/08 23:14:55;;;;;;;42.20;25.20;;;;;;;6.00;100.00;101133.16;180624;1262;43807;-86
2023/04/08 23:18:59;;;;;;;40.10;31.40;;;;;;;5.97;100.00;101136.84;180807;1262;59702;-87
2023/04/08 23:23:02;;;;;;;48.10;33.20;;;;;;;5.99;100.00;101138.34;180555;1262;44221;-87
2023/04/08 23:27:06;;;;;;;47.60;32.00;;;;;;;6.01;100.00;101135.27;180605;1262;44013;-87
2023/04/08 23:31:09;;;;;;;51.70;32.50;;;;;;;6.02;100.00;101135.05;180769;1262;43978;-87
2023/04/08 23:35:12;;;;;;;38.50;27.30;;;;;;;6.08;100.00;101134.74;180638;1262;44056;-86
2023/04/08 23:39:16;;;;;;;48.60;32.40;;;;;;;6.09;100.00;101129.95;180618;1262;59535;-87
2023/04/08 23:43:19;;;;;;;46.60;31.10;;;;;;;6.11;100.00;101131.58;180604;1262;43805;-86
2023/04/08 23:47:23;;;;;;;47.00;32.10;;;;;;;6.14;100.00;101133.23;180793;1262;43899;-87
2023/04/08 23:51:27;;;;;;;46.10;31.60;;;;;;;6.22;100.00;101133.73;180558;1262;43954;-87
2023/04/08 23:55:30;;;;;;;47.60;32.00;;;;;;;6.25;100.00;101127.73;180486;1262;43805;-87
2023/04/08 23:59:33;;;;;;;47.60;33.70;;;;;;;6.22;100.00;101117.19;180501;1262;59247;-86
